Messwerte New Bedford

Temperatur

Temperatur
°C
1573466400 5.00 5.00 2
1573470000 6.00 6.00 3
1573473600 7.00 7.00 1
1573477200 8.00 8.00 4
1573480800 9.00 9.00 11
1573484400 10.00 10.00 14
1573488000 11.00 11.00 16
1573491600 12.00 12.00 17
1573495200 13.00 13.00 17
1573498800 14.00 14.00 17
1573502400 15.00 15.00 16
1573506000 16.00 16.00 15
1573509600 17.00 17.00 14
1573513200 18.00 18.00 14
1573516800 19.00 19.00
1573520400 20.00 20.00 14
1573524000 21.00 21.00 13
1573527600 22.00 22.00
1573531200 23.00 23.00 12
1573534800 0.00 0.00 8
1573538400 1.00 1.00 8
1573542000 2.00 2.00 9
1573545600 3.00 3.00 12
1573549200 4.00 4.00 14

Aktuellste Messwerte

Wettercharakter
Wetter: klar
Temperatur
14 °C
Feuchtigkeit
80 %
Wind
20 km/hWindrichtung: Südwest
Luftdruck
1006 hPa
Messzeit: 12. November 2019, 5.00Datenquelle: METAR

Weitere Messstationen in der Nähe

Messstation Temperatur Entfernung
Taunton 8 °C 23 km
Plymouth 9 °C 31 km
Newport 15 °C 32 km
Providence 7 °C 40 km
Vineyard Haven 15 °C 42 km
Pawtucket 6 °C 52 km
Hyannis 14 °C 56 km

Wind

Windrichtung Böen Mittelwind
° km/h km/h
1573466400 5.00 4.00 - 5.00 0
1573470000 6.00 5.00 - 6.00 0
1573473600 7.00 6.00 - 7.00 0
1573477200 8.00 7.00 - 8.00 0
1573480800 9.00 8.00 - 9.00 0
1573484400 10.00 9.00 - 10.00 180° 20
1573488000 11.00 10.00 - 11.00 200° 15
1573491600 12.00 11.00 - 12.00 200° 20
1573495200 13.00 12.00 - 13.00 200° 15
1573498800 14.00 13.00 - 14.00 190° 30 20
1573502400 15.00 14.00 - 15.00 190° 15
1573506000 16.00 15.00 - 16.00 160° 20
1573509600 17.00 16.00 - 17.00 150° 20
1573513200 18.00 17.00 - 18.00 150° 10
1573516800 19.00 18.00 - 19.00
1573520400 20.00 19.00 - 20.00 180° 15
1573524000 21.00 20.00 - 21.00 180° 5
1573527600 22.00 21.00 - 22.00
1573531200 23.00 22.00 - 23.00 0
1573534800 0.00 23.00 - 0.00 0
1573538400 1.00 0.00 - 1.00 0
1573542000 2.00 1.00 - 2.00 0
1573545600 3.00 2.00 - 3.00 200° 10
1573549200 4.00 3.00 - 4.00 210° 20

Ihre Wetterstation

Fehlt Ihre Wetterstation auf unserem Portal?

Schreiben Sie an network@meteonews.ch

Klima

Wann ist es am wärmsten? Wann regnet es am wenigsten? Unsere Klimadaten geben Auskunft.